VOE3543 LEMH-LEBB
Flight info
| Callsign | VOE3543 |
|---|---|
| Flight time | 1h 9m |
| Altitude | 37000 |
| Route | LUNIK DCT BCN M601 REBUL/N0424F330 M601 POSSY/N0419F310 M601 CEGAM |
| Aircraft | A319/M-SDE3FGHIRWY/LB1 |
Departure
| Time | 2026-04-29 12:51 |
|---|---|
| Airport | Menorca Airport (LEMH) |
Arrival
| Time | 2026-04-29 14:00 |
|---|---|
| Airport | Bilbao Airport (LEBB) |
| Time | Latitude | Longitude | Altitude | Speed | Heading |
|---|---|---|---|---|---|
| 2026-04-29 12:35 | 39.86529 | 4.22429 | 276 ft | 0 kts | 99° |
| 2026-04-29 12:42 | 39.86531 | 4.22413 | 276 ft | 2 kts | 98° |
| 2026-04-29 12:42 | 39.86534 | 4.22387 | 276 ft | 2 kts | 99° |
| 2026-04-29 12:42 | 39.86536 | 4.22368 | 277 ft | 2 kts | 99° |
| 2026-04-29 12:43 | 39.86539 | 4.22349 | 277 ft | 1 kts | 99° |
| 2026-04-29 12:43 | 39.86544 | 4.22335 | 278 ft | 1 kts | 151° |
| 2026-04-29 12:43 | 39.86551 | 4.22332 | 278 ft | 0 kts | 186° |
| 2026-04-29 12:43 | 39.86559 | 4.22335 | 278 ft | 0 kts | 189° |
| 2026-04-29 12:45 | 39.86556 | 4.22334 | 278 ft | 1 kts | 188° |
| 2026-04-29 12:45 | 39.86529 | 4.22329 | 278 ft | 5 kts | 188° |
| 2026-04-29 12:46 | 39.86474 | 4.22318 | 277 ft | 10 kts | 189° |
| 2026-04-29 12:46 | 39.86394 | 4.22302 | 275 ft | 13 kts | 189° |
| 2026-04-29 12:46 | 39.86302 | 4.22283 | 276 ft | 14 kts | 189° |
| 2026-04-29 12:46 | 39.86208 | 4.22262 | 276 ft | 12 kts | 192° |
| 2026-04-29 12:47 | 39.86189 | 4.22164 | 277 ft | 11 kts | 279° |
| 2026-04-29 12:47 | 39.86168 | 4.22086 | 280 ft | 10 kts | 199° |
| 2026-04-29 12:47 | 39.86092 | 4.22069 | 281 ft | 11 kts | 188° |
| 2026-04-29 12:47 | 39.86003 | 4.22051 | 281 ft | 14 kts | 188° |
| 2026-04-29 12:48 | 39.85897 | 4.22029 | 281 ft | 16 kts | 188° |
| 2026-04-29 12:48 | 39.85768 | 4.22002 | 279 ft | 20 kts | 189° |
| 2026-04-29 12:48 | 39.85619 | 4.21971 | 276 ft | 23 kts | 188° |
| 2026-04-29 12:48 | 39.85509 | 4.21949 | 275 ft | 25 kts | 189° |
| 2026-04-29 12:49 | 39.85269 | 4.21900 | 269 ft | 21 kts | 189° |
| 2026-04-29 12:49 | 39.85157 | 4.21877 | 267 ft | 13 kts | 194° |
| 2026-04-29 12:49 | 39.85132 | 4.21770 | 266 ft | 14 kts | 280° |
| 2026-04-29 12:49 | 39.85151 | 4.21663 | 267 ft | 9 kts | 310° |
| 2026-04-29 12:50 | 39.85212 | 4.21650 | 268 ft | 9 kts | 8° |
| 2026-04-29 12:50 | 39.85290 | 4.21667 | 270 ft | 22 kts | 10° |
| 2026-04-29 12:50 | 39.85710 | 4.21753 | 281 ft | 97 kts | 9° |
| 2026-04-29 12:50 | 39.86602 | 4.21937 | 297 ft | 158 kts | 14° |
| 2026-04-29 12:51 | 39.87674 | 4.22141 | 986 ft | 157 kts | 12° |
| 2026-04-29 12:51 | 39.88752 | 4.22329 | 1679 ft | 161 kts | 13° |
| 2026-04-29 12:51 | 39.89857 | 4.22577 | 2326 ft | 167 kts | 14° |
| 2026-04-29 12:51 | 39.91039 | 4.22856 | 2806 ft | 183 kts | 13° |
| 2026-04-29 12:52 | 39.92343 | 4.23150 | 3296 ft | 200 kts | 12° |
| 2026-04-29 12:52 | 39.93779 | 4.23457 | 3799 ft | 218 kts | 11° |
| 2026-04-29 12:52 | 39.95352 | 4.23786 | 4237 ft | 241 kts | 11° |
| 2026-04-29 12:52 | 39.97076 | 4.24140 | 4804 ft | 260 kts | 10° |
| 2026-04-29 12:53 | 39.98933 | 4.24437 | 5414 ft | 278 kts | 360° |
| 2026-04-29 12:53 | 40.00771 | 4.23736 | 6193 ft | 287 kts | 325° |
| 2026-04-29 12:53 | 40.02107 | 4.21865 | 7150 ft | 286 kts | 302° |
| 2026-04-29 12:53 | 40.03148 | 4.19665 | 8098 ft | 288 kts | 299° |
| 2026-04-29 12:54 | 40.04166 | 4.17432 | 9025 ft | 290 kts | 300° |
| 2026-04-29 12:54 | 40.05208 | 4.15227 | 9947 ft | 292 kts | 300° |
| 2026-04-29 12:54 | 40.06308 | 4.12979 | 10740 ft | 300 kts | 301° |
| 2026-04-29 12:54 | 40.07480 | 4.10636 | 11332 ft | 314 kts | 302° |
| 2026-04-29 12:55 | 40.08680 | 4.08273 | 12095 ft | 320 kts | 302° |
| 2026-04-29 12:55 | 40.09930 | 4.05837 | 12954 ft | 323 kts | 302° |
| 2026-04-29 12:55 | 40.11171 | 4.03425 | 13761 ft | 326 kts | 302° |
| 2026-04-29 12:55 | 40.12432 | 4.00976 | 14548 ft | 329 kts | 302° |
| 2026-04-29 12:56 | 40.13720 | 3.98472 | 15318 ft | 333 kts | 302° |
| 2026-04-29 12:56 | 40.15014 | 3.95958 | 16042 ft | 337 kts | 302° |
| 2026-04-29 12:56 | 40.16311 | 3.93441 | 16750 ft | 341 kts | 302° |
| 2026-04-29 12:56 | 40.17631 | 3.90877 | 17471 ft | 344 kts | 302° |
| 2026-04-29 12:57 | 40.18977 | 3.88260 | 18161 ft | 348 kts | 302° |
| 2026-04-29 12:57 | 40.20322 | 3.85642 | 18825 ft | 351 kts | 302° |
| 2026-04-29 12:57 | 40.21688 | 3.82979 | 19458 ft | 355 kts | 302° |
| 2026-04-29 12:57 | 40.23073 | 3.80281 | 20087 ft | 359 kts | 303° |
| 2026-04-29 12:58 | 40.24450 | 3.77591 | 20686 ft | 363 kts | 303° |
| 2026-04-29 12:58 | 40.25866 | 3.74828 | 21265 ft | 368 kts | 303° |
| 2026-04-29 12:58 | 40.27300 | 3.72023 | 21839 ft | 372 kts | 303° |
| 2026-04-29 12:58 | 40.28734 | 3.69218 | 22402 ft | 376 kts | 304° |
| 2026-04-29 12:59 | 40.30185 | 3.66377 | 22961 ft | 380 kts | 304° |
| 2026-04-29 12:59 | 40.31672 | 3.63471 | 23499 ft | 384 kts | 304° |
| 2026-04-29 12:59 | 40.33155 | 3.60568 | 24075 ft | 387 kts | 303° |
| 2026-04-29 12:59 | 40.34649 | 3.57638 | 24640 ft | 389 kts | 303° |
| 2026-04-29 13:00 | 40.36160 | 3.54673 | 25183 ft | 392 kts | 303° |
| 2026-04-29 13:00 | 40.37660 | 3.51718 | 25742 ft | 394 kts | 303° |
| 2026-04-29 13:00 | 40.39173 | 3.48734 | 26274 ft | 396 kts | 303° |
| 2026-04-29 13:00 | 40.40701 | 3.45717 | 26786 ft | 398 kts | 304° |
| 2026-04-29 13:01 | 40.42240 | 3.42679 | 27318 ft | 400 kts | 304° |
| 2026-04-29 13:01 | 40.43853 | 3.39728 | 27753 ft | 403 kts | 308° |
| 2026-04-29 13:01 | 40.45618 | 3.36884 | 28162 ft | 406 kts | 312° |
| 2026-04-29 13:01 | 40.47511 | 3.34103 | 28599 ft | 409 kts | 311° |
| 2026-04-29 13:02 | 40.49418 | 3.31349 | 28982 ft | 413 kts | 311° |
| 2026-04-29 13:02 | 40.51358 | 3.28536 | 29428 ft | 415 kts | 311° |
| 2026-04-29 13:02 | 40.53280 | 3.25742 | 29918 ft | 415 kts | 311° |
| 2026-04-29 13:02 | 40.55212 | 3.22935 | 30339 ft | 417 kts | 311° |
| 2026-04-29 13:03 | 40.57165 | 3.20090 | 30683 ft | 421 kts | 311° |
| 2026-04-29 13:03 | 40.59131 | 3.17219 | 30993 ft | 425 kts | 311° |
| 2026-04-29 13:03 | 40.61116 | 3.14318 | 31298 ft | 428 kts | 311° |
| 2026-04-29 13:03 | 40.63083 | 3.11441 | 31620 ft | 431 kts | 311° |
| 2026-04-29 13:04 | 40.65093 | 3.08499 | 31933 ft | 434 kts | 311° |
| 2026-04-29 13:04 | 40.67117 | 3.05533 | 32331 ft | 435 kts | 311° |
| 2026-04-29 13:04 | 40.69143 | 3.02562 | 32787 ft | 434 kts | 311° |
| 2026-04-29 13:04 | 40.71139 | 2.99633 | 33210 ft | 434 kts | 311° |
| 2026-04-29 13:05 | 40.73140 | 2.96695 | 33637 ft | 433 kts | 311° |
| 2026-04-29 13:05 | 40.75141 | 2.93753 | 34049 ft | 432 kts | 311° |
| 2026-04-29 13:05 | 40.77157 | 2.90783 | 34421 ft | 432 kts | 311° |
| 2026-04-29 13:05 | 40.79138 | 2.87862 | 34749 ft | 432 kts | 311° |
| 2026-04-29 13:06 | 40.81151 | 2.84893 | 35084 ft | 431 kts | 311° |
| 2026-04-29 13:06 | 40.83147 | 2.81945 | 35400 ft | 431 kts | 311° |
| 2026-04-29 13:06 | 40.85139 | 2.79003 | 35677 ft | 431 kts | 311° |
| 2026-04-29 13:06 | 40.87120 | 2.76072 | 35913 ft | 432 kts | 311° |
| 2026-04-29 13:07 | 40.89104 | 2.73131 | 36143 ft | 433 kts | 311° |
| 2026-04-29 13:07 | 40.91114 | 2.70152 | 36386 ft | 433 kts | 311° |
| 2026-04-29 13:07 | 40.93129 | 2.67163 | 36662 ft | 433 kts | 311° |
| 2026-04-29 13:07 | 40.95120 | 2.64206 | 36925 ft | 434 kts | 310° |
| 2026-04-29 13:08 | 40.97110 | 2.61243 | 36944 ft | 435 kts | 310° |
| 2026-04-29 13:08 | 41.01125 | 2.55262 | 36951 ft | 436 kts | 310° |
| 2026-04-29 13:09 | 41.05135 | 2.49278 | 36950 ft | 436 kts | 310° |
| 2026-04-29 13:09 | 41.09156 | 2.43265 | 36953 ft | 437 kts | 310° |
| 2026-04-29 13:10 | 41.13174 | 2.37247 | 36955 ft | 437 kts | 310° |
| 2026-04-29 13:10 | 41.17167 | 2.31252 | 36959 ft | 437 kts | 310° |
| 2026-04-29 13:11 | 41.21181 | 2.25211 | 36959 ft | 436 kts | 310° |
| 2026-04-29 13:11 | 41.25176 | 2.19189 | 36961 ft | 436 kts | 309° |
| 2026-04-29 13:12 | 41.29099 | 2.13004 | 36965 ft | 436 kts | 305° |
| 2026-04-29 13:12 | 41.32444 | 2.06391 | 36966 ft | 434 kts | 298° |
| 2026-04-29 13:13 | 41.35321 | 1.99334 | 36962 ft | 434 kts | 296° |
| 2026-04-29 13:13 | 41.38123 | 1.92244 | 36960 ft | 434 kts | 296° |
| 2026-04-29 13:14 | 41.40938 | 1.85133 | 36970 ft | 435 kts | 296° |
| 2026-04-29 13:14 | 41.43747 | 1.78030 | 36969 ft | 434 kts | 296° |
| 2026-04-29 13:15 | 41.46536 | 1.70966 | 36972 ft | 434 kts | 296° |
| 2026-04-29 13:15 | 41.49347 | 1.63834 | 36971 ft | 434 kts | 296° |
| 2026-04-29 13:16 | 41.52134 | 1.56746 | 36973 ft | 434 kts | 295° |
| 2026-04-29 13:16 | 41.54932 | 1.49604 | 36977 ft | 434 kts | 295° |
| 2026-04-29 13:17 | 41.57702 | 1.42522 | 36977 ft | 434 kts | 295° |
| 2026-04-29 13:17 | 41.60492 | 1.35373 | 36979 ft | 435 kts | 295° |
| 2026-04-29 13:18 | 41.63280 | 1.28207 | 36978 ft | 435 kts | 294° |
| 2026-04-29 13:18 | 41.66056 | 1.21053 | 36969 ft | 435 kts | 295° |
| 2026-04-29 13:19 | 41.68828 | 1.13889 | 36967 ft | 435 kts | 294° |
| 2026-04-29 13:19 | 41.71595 | 1.06724 | 36963 ft | 435 kts | 294° |
| 2026-04-29 13:20 | 41.74357 | 0.99562 | 36962 ft | 435 kts | 294° |
| 2026-04-29 13:20 | 41.77118 | 0.92379 | 36960 ft | 435 kts | 294° |
| 2026-04-29 13:21 | 41.79882 | 0.85166 | 36962 ft | 436 kts | 294° |
| 2026-04-29 13:21 | 41.82634 | 0.77963 | 36965 ft | 436 kts | 294° |
| 2026-04-29 13:22 | 41.85379 | 0.70770 | 36969 ft | 436 kts | 294° |
| 2026-04-29 13:22 | 41.88127 | 0.63550 | 36967 ft | 436 kts | 294° |
| 2026-04-29 13:23 | 41.90854 | 0.56357 | 36973 ft | 436 kts | 294° |
| 2026-04-29 13:23 | 41.93594 | 0.49114 | 36977 ft | 436 kts | 294° |
| 2026-04-29 13:24 | 41.96321 | 0.41890 | 36973 ft | 436 kts | 294° |
| 2026-04-29 13:24 | 41.99047 | 0.34653 | 36967 ft | 436 kts | 293° |
| 2026-04-29 13:25 | 42.01782 | 0.27379 | 36964 ft | 436 kts | 293° |
| 2026-04-29 13:25 | 42.05868 | 0.16465 | 36959 ft | 437 kts | 293° |
| 2026-04-29 13:26 | 42.08580 | 0.09209 | 36959 ft | 437 kts | 292° |
| 2026-04-29 13:26 | 42.11292 | 0.01933 | 36960 ft | 436 kts | 292° |
| 2026-04-29 13:27 | 42.13998 | -0.05364 | 36963 ft | 436 kts | 292° |
| 2026-04-29 13:27 | 42.16685 | -0.12623 | 36972 ft | 436 kts | 292° |
| 2026-04-29 13:28 | 42.19378 | -0.19911 | 36974 ft | 436 kts | 292° |
| 2026-04-29 13:28 | 42.22079 | -0.27241 | 36968 ft | 436 kts | 292° |
| 2026-04-29 13:29 | 42.24756 | -0.34525 | 36967 ft | 437 kts | 292° |
| 2026-04-29 13:29 | 42.27452 | -0.41880 | 36962 ft | 437 kts | 292° |
| 2026-04-29 13:30 | 42.30125 | -0.49191 | 36958 ft | 437 kts | 292° |
| 2026-04-29 13:30 | 42.32802 | -0.56537 | 36951 ft | 437 kts | 292° |
| 2026-04-29 13:31 | 42.35486 | -0.63906 | 36953 ft | 437 kts | 292° |
| 2026-04-29 13:31 | 42.38144 | -0.71227 | 36947 ft | 437 kts | 291° |
| 2026-04-29 13:32 | 42.40797 | -0.78560 | 36948 ft | 436 kts | 291° |
| 2026-04-29 13:32 | 42.43453 | -0.85919 | 36942 ft | 437 kts | 291° |
| 2026-04-29 13:33 | 42.46119 | -0.93320 | 36507 ft | 437 kts | 291° |
| 2026-04-29 13:33 | 42.47435 | -0.96983 | 36104 ft | 435 kts | 291° |
| 2026-04-29 13:33 | 42.48751 | -1.00656 | 35538 ft | 437 kts | 291° |
| 2026-04-29 13:34 | 42.50078 | -1.04362 | 34897 ft | 441 kts | 291° |
| 2026-04-29 13:34 | 42.51430 | -1.08137 | 34167 ft | 445 kts | 291° |
| 2026-04-29 13:34 | 42.52765 | -1.11875 | 33450 ft | 447 kts | 291° |
| 2026-04-29 13:34 | 42.54109 | -1.15638 | 32770 ft | 448 kts | 291° |
| 2026-04-29 13:35 | 42.55461 | -1.19433 | 32081 ft | 448 kts | 291° |
| 2026-04-29 13:35 | 42.56822 | -1.23251 | 31404 ft | 448 kts | 291° |
| 2026-04-29 13:35 | 42.58151 | -1.26986 | 30951 ft | 443 kts | 291° |
| 2026-04-29 13:35 | 42.59476 | -1.30716 | 30495 ft | 437 kts | 291° |
| 2026-04-29 13:36 | 42.60780 | -1.34393 | 30028 ft | 433 kts | 291° |
| 2026-04-29 13:36 | 42.62081 | -1.38058 | 29557 ft | 428 kts | 291° |
| 2026-04-29 13:36 | 42.63363 | -1.41674 | 29104 ft | 423 kts | 291° |
| 2026-04-29 13:36 | 42.64619 | -1.45226 | 28652 ft | 418 kts | 291° |
| 2026-04-29 13:37 | 42.65871 | -1.48775 | 28198 ft | 414 kts | 291° |
| 2026-04-29 13:37 | 42.67090 | -1.52233 | 27751 ft | 409 kts | 291° |
| 2026-04-29 13:37 | 42.68306 | -1.55687 | 27313 ft | 405 kts | 291° |
| 2026-04-29 13:37 | 42.69519 | -1.59143 | 26868 ft | 400 kts | 291° |
| 2026-04-29 13:38 | 42.70707 | -1.62526 | 26434 ft | 397 kts | 291° |
| 2026-04-29 13:38 | 42.71872 | -1.65848 | 26004 ft | 393 kts | 291° |
| 2026-04-29 13:38 | 42.73078 | -1.69167 | 25570 ft | 391 kts | 293° |
| 2026-04-29 13:38 | 42.74411 | -1.72348 | 25150 ft | 389 kts | 297° |
| 2026-04-29 13:39 | 42.75851 | -1.75451 | 24716 ft | 387 kts | 298° |
| 2026-04-29 13:39 | 42.77298 | -1.78513 | 24288 ft | 384 kts | 298° |
| 2026-04-29 13:39 | 42.78734 | -1.81548 | 23864 ft | 381 kts | 298° |
| 2026-04-29 13:39 | 42.80155 | -1.84565 | 23450 ft | 378 kts | 298° |
| 2026-04-29 13:40 | 42.81557 | -1.87548 | 23041 ft | 376 kts | 298° |
| 2026-04-29 13:40 | 42.82976 | -1.90573 | 22608 ft | 374 kts | 298° |
| 2026-04-29 13:40 | 42.84362 | -1.93535 | 22176 ft | 373 kts | 298° |
| 2026-04-29 13:40 | 42.85741 | -1.96477 | 21745 ft | 371 kts | 298° |
| 2026-04-29 13:41 | 42.87128 | -1.99443 | 21313 ft | 370 kts | 298° |
| 2026-04-29 13:41 | 42.88509 | -2.02395 | 20875 ft | 369 kts | 298° |
| 2026-04-29 13:41 | 42.89878 | -2.05328 | 20445 ft | 367 kts | 298° |
| 2026-04-29 13:41 | 42.91236 | -2.08242 | 20015 ft | 365 kts | 298° |
| 2026-04-29 13:42 | 42.92586 | -2.11140 | 19593 ft | 364 kts | 298° |
| 2026-04-29 13:42 | 42.93940 | -2.14052 | 19167 ft | 361 kts | 298° |
| 2026-04-29 13:42 | 42.95276 | -2.16920 | 18755 ft | 359 kts | 298° |
| 2026-04-29 13:42 | 42.96613 | -2.19802 | 18335 ft | 357 kts | 298° |
| 2026-04-29 13:43 | 42.97921 | -2.22618 | 17937 ft | 354 kts | 298° |
| 2026-04-29 13:43 | 42.99231 | -2.25431 | 17544 ft | 352 kts | 298° |
| 2026-04-29 13:43 | 43.00552 | -2.28240 | 17187 ft | 349 kts | 298° |
| 2026-04-29 13:43 | 43.01854 | -2.31006 | 16797 ft | 347 kts | 298° |
| 2026-04-29 13:44 | 43.03150 | -2.33762 | 16403 ft | 346 kts | 298° |
| 2026-04-29 13:44 | 43.04452 | -2.36536 | 15993 ft | 344 kts | 298° |
| 2026-04-29 13:44 | 43.05733 | -2.39272 | 15594 ft | 343 kts | 298° |
| 2026-04-29 13:44 | 43.07002 | -2.41982 | 15190 ft | 342 kts | 298° |
| 2026-04-29 13:45 | 43.08290 | -2.44738 | 14776 ft | 340 kts | 298° |
| 2026-04-29 13:45 | 43.09559 | -2.47458 | 14367 ft | 339 kts | 298° |
| 2026-04-29 13:45 | 43.10815 | -2.50149 | 13960 ft | 337 kts | 298° |
| 2026-04-29 13:45 | 43.12069 | -2.52839 | 13550 ft | 334 kts | 298° |
| 2026-04-29 13:46 | 43.13309 | -2.55500 | 13146 ft | 332 kts | 298° |
| 2026-04-29 13:46 | 43.14546 | -2.58154 | 12732 ft | 330 kts | 298° |
| 2026-04-29 13:46 | 43.15768 | -2.60784 | 12333 ft | 327 kts | 298° |
| 2026-04-29 13:46 | 43.16980 | -2.63392 | 11919 ft | 324 kts | 298° |
| 2026-04-29 13:47 | 43.18181 | -2.65979 | 11538 ft | 322 kts | 297° |
| 2026-04-29 13:47 | 43.19375 | -2.68554 | 11142 ft | 319 kts | 297° |
| 2026-04-29 13:47 | 43.20562 | -2.71116 | 10742 ft | 317 kts | 297° |
| 2026-04-29 13:47 | 43.21722 | -2.73624 | 10362 ft | 315 kts | 297° |
| 2026-04-29 13:48 | 43.22897 | -2.76165 | 9997 ft | 311 kts | 297° |
| 2026-04-29 13:48 | 43.24023 | -2.78600 | 9865 ft | 298 kts | 297° |
| 2026-04-29 13:48 | 43.25122 | -2.80975 | 9633 ft | 291 kts | 296° |
| 2026-04-29 13:48 | 43.26185 | -2.83286 | 9279 ft | 289 kts | 297° |
| 2026-04-29 13:49 | 43.27246 | -2.85589 | 9117 ft | 279 kts | 297° |
| 2026-04-29 13:49 | 43.28265 | -2.87793 | 9038 ft | 267 kts | 296° |
| 2026-04-29 13:49 | 43.29229 | -2.89886 | 8957 ft | 255 kts | 296° |
| 2026-04-29 13:49 | 43.30188 | -2.91908 | 8883 ft | 245 kts | 300° |
| 2026-04-29 13:50 | 43.31229 | -2.93705 | 8700 ft | 243 kts | 306° |
| 2026-04-29 13:50 | 43.32364 | -2.95431 | 8420 ft | 244 kts | 307° |
| 2026-04-29 13:50 | 43.33505 | -2.97132 | 8146 ft | 244 kts | 307° |
| 2026-04-29 13:50 | 43.34649 | -2.98834 | 7876 ft | 243 kts | 307° |
| 2026-04-29 13:51 | 43.35802 | -3.00552 | 7607 ft | 242 kts | 308° |
| 2026-04-29 13:51 | 43.36943 | -3.02255 | 7344 ft | 242 kts | 308° |
| 2026-04-29 13:51 | 43.38066 | -3.03937 | 7079 ft | 242 kts | 308° |
| 2026-04-29 13:51 | 43.39207 | -3.05647 | 6803 ft | 241 kts | 308° |
| 2026-04-29 13:52 | 43.40339 | -3.07345 | 6549 ft | 241 kts | 308° |
| 2026-04-29 13:52 | 43.41466 | -3.09036 | 6276 ft | 241 kts | 308° |
| 2026-04-29 13:52 | 43.42596 | -3.10733 | 6007 ft | 241 kts | 309° |
| 2026-04-29 13:52 | 43.43726 | -3.12433 | 5736 ft | 241 kts | 309° |
| 2026-04-29 13:53 | 43.44859 | -3.14134 | 5449 ft | 241 kts | 309° |
| 2026-04-29 13:53 | 43.45783 | -3.16029 | 5102 ft | 235 kts | 282° |
| 2026-04-29 13:53 | 43.45815 | -3.18166 | 4810 ft | 225 kts | 249° |
| 2026-04-29 13:53 | 43.45061 | -3.19977 | 4525 ft | 216 kts | 220° |
| 2026-04-29 13:54 | 43.43812 | -3.20988 | 4226 ft | 208 kts | 190° |
| 2026-04-29 13:54 | 43.42411 | -3.20832 | 3986 ft | 203 kts | 155° |
| 2026-04-29 13:54 | 43.41260 | -3.19726 | 3775 ft | 201 kts | 140° |
| 2026-04-29 13:54 | 43.40303 | -3.18350 | 3562 ft | 203 kts | 129° |
| 2026-04-29 13:55 | 43.39511 | -3.16708 | 3503 ft | 210 kts | 121° |
| 2026-04-29 13:55 | 43.38844 | -3.14914 | 3498 ft | 209 kts | 118° |
| 2026-04-29 13:55 | 43.38241 | -3.13188 | 3459 ft | 194 kts | 118° |
| 2026-04-29 13:55 | 43.37653 | -3.11536 | 3188 ft | 189 kts | 119° |
| 2026-04-29 13:56 | 43.37077 | -3.09958 | 2917 ft | 184 kts | 119° |
| 2026-04-29 13:56 | 43.36502 | -3.08403 | 2654 ft | 180 kts | 120° |
| 2026-04-29 13:56 | 43.35942 | -3.06893 | 2406 ft | 176 kts | 119° |
| 2026-04-29 13:56 | 43.35404 | -3.05440 | 2164 ft | 164 kts | 118° |
| 2026-04-29 13:57 | 43.34906 | -3.04094 | 1950 ft | 151 kts | 118° |
| 2026-04-29 13:57 | 43.34460 | -3.02884 | 1773 ft | 136 kts | 119° |
| 2026-04-29 13:57 | 43.34043 | -3.01759 | 1596 ft | 130 kts | 117° |
| 2026-04-29 13:57 | 43.33775 | -3.01026 | 1488 ft | 130 kts | 118° |
| 2026-04-29 13:58 | 43.33234 | -2.99560 | 1269 ft | 129 kts | 118° |
| 2026-04-29 13:58 | 43.32832 | -2.98466 | 1104 ft | 129 kts | 118° |
| 2026-04-29 13:58 | 43.32426 | -2.97365 | 928 ft | 128 kts | 119° |
| 2026-04-29 13:58 | 43.32023 | -2.96268 | 753 ft | 128 kts | 118° |
| 2026-04-29 13:59 | 43.31624 | -2.95182 | 574 ft | 127 kts | 119° |
| 2026-04-29 13:59 | 43.31222 | -2.94091 | 416 ft | 127 kts | 117° |
| 2026-04-29 13:59 | 43.30822 | -2.93003 | 262 ft | 126 kts | 117° |
| 2026-04-29 13:59 | 43.30436 | -2.91935 | 144 ft | 124 kts | 118° |
| 2026-04-29 14:00 | 43.30119 | -2.91085 | 140 ft | 74 kts | 117° |
| 2026-04-29 14:00 | 43.29964 | -2.90664 | 137 ft | 28 kts | 112° |
| 2026-04-29 14:00 | 43.29925 | -2.90433 | 136 ft | 23 kts | 90° |
| 2026-04-29 14:00 | 43.29928 | -2.90289 | 138 ft | 10 kts | 86° |
| 2026-04-29 14:01 | 43.29945 | -2.90231 | 139 ft | 6 kts | 39° |
| 2026-04-29 14:01 | 43.29975 | -2.90225 | 141 ft | 3 kts | 342° |
| 2026-04-29 14:01 | 43.29994 | -2.90246 | 142 ft | 4 kts | 307° |
| 2026-04-29 14:01 | 43.30011 | -2.90288 | 143 ft | 6 kts | 297° |
| 2026-04-29 14:02 | 43.30035 | -2.90352 | 143 ft | 8 kts | 297° |
| 2026-04-29 14:02 | 43.30077 | -2.90424 | 145 ft | 10 kts | 348° |
| 2026-04-29 14:02 | 43.30125 | -2.90376 | 147 ft | 5 kts | 59° |
| 2026-04-29 14:02 | 43.30156 | -2.90351 | 148 ft | 6 kts | 341° |
| 2026-04-29 14:03 | 43.30176 | -2.90366 | 149 ft | 0 kts | 329° |
| 2026-04-29 14:03 | 43.30181 | -2.90370 | 150 ft | 2 kts | 329° |
| 2026-04-29 14:03 | 43.30187 | -2.90375 | 150 ft | 0 kts | 329° |